createdAt,value
2018-03-30T00:00:47.269Z,2.32
2018-03-30T00:01:47.246Z,2.28
2018-03-30T00:02:47.256Z,2.33
2018-03-30T00:03:47.263Z,2.32
2018-03-30T00:04:47.273Z,2.34
2018-03-30T00:05:47.282Z,2.43
2018-03-30T00:06:47.303Z,2.39
2018-03-30T00:07:47.312Z,2.46
2018-03-30T00:08:47.321Z,2.40
2018-03-30T00:09:47.330Z,2.47
2018-03-30T00:10:47.352Z,2.37
2018-03-30T00:11:47.360Z,2.37
2018-03-30T00:12:47.370Z,2.40
2018-03-30T00:13:47.378Z,2.40
2018-03-30T00:14:47.387Z,2.40
2018-03-30T00:15:47.408Z,2.33
2018-03-30T00:16:47.418Z,2.37
2018-03-30T00:17:47.428Z,2.39
2018-03-30T00:18:47.435Z,2.36
2018-03-30T00:19:47.456Z,2.43
2018-03-30T00:20:47.470Z,2.41
2018-03-30T00:21:47.476Z,2.44
2018-03-30T00:22:47.483Z,2.34
2018-03-30T00:23:47.493Z,2.39
2018-03-30T00:24:47.512Z,2.40
2018-03-30T00:25:47.522Z,2.37
2018-03-30T00:26:47.531Z,2.34
2018-03-30T00:27:47.539Z,2.44
2018-03-30T00:28:47.561Z,2.50
2018-03-30T00:29:47.569Z,2.52
2018-03-30T00:30:47.579Z,2.46
2018-03-30T00:31:47.588Z,2.47
2018-03-30T00:32:47.601Z,2.47
2018-03-30T00:33:47.619Z,2.54
2018-03-30T00:34:47.627Z,2.62
2018-03-30T00:35:47.636Z,2.54
2018-03-30T00:36:47.644Z,2.61
2018-03-30T00:37:47.667Z,2.64
2018-03-30T00:38:47.675Z,2.61
2018-03-30T00:39:47.687Z,2.70
2018-03-30T00:40:47.693Z,2.70
2018-03-30T00:41:47.715Z,2.73
2018-03-30T00:42:47.723Z,2.77
2018-03-30T00:43:47.732Z,2.83
2018-03-30T00:44:47.740Z,2.90
2018-03-30T00:45:47.763Z,2.87
2018-03-30T00:46:47.772Z,2.88
2018-03-30T00:47:47.781Z,2.94
2018-03-30T00:48:47.792Z,2.94
2018-03-30T00:49:47.799Z,2.95
2018-03-30T00:50:47.818Z,2.88
2018-03-30T00:51:47.833Z,2.83
2018-03-30T00:52:47.838Z,2.91
2018-03-30T00:53:47.846Z,2.85
2018-03-30T00:54:47.868Z,2.91
2018-03-30T00:55:47.875Z,2.95
2018-03-30T00:56:47.885Z,2.93
2018-03-30T00:57:47.894Z,2.90
2018-03-30T00:58:47.963Z,2.88
2018-03-30T00:59:47.925Z,3.01
2018-03-30T01:00:47.945Z,2.95
2018-03-30T01:01:47.953Z,2.95
2018-03-30T01:02:47.963Z,3.01
2018-03-30T01:03:47.971Z,3.00
2018-03-30T01:04:47.981Z,2.91
2018-03-30T01:05:48.003Z,2.85
2018-03-30T01:06:48.010Z,2.87
2018-03-30T01:07:48.021Z,2.85
2018-03-30T01:08:48.029Z,2.93
2018-03-30T01:09:48.050Z,2.98
2018-03-30T01:10:48.060Z,2.91
2018-03-30T01:11:48.072Z,2.94
2018-03-30T01:12:48.077Z,2.88
2018-03-30T01:13:48.087Z,2.93
2018-03-30T01:14:48.107Z,2.88
2018-03-30T01:15:48.117Z,2.82
2018-03-30T01:16:48.124Z,2.80
2018-03-30T01:17:48.134Z,2.83
2018-03-30T01:18:48.155Z,2.77
2018-03-30T01:19:48.165Z,2.90
2018-03-30T01:20:48.175Z,2.73
2018-03-30T01:21:48.182Z,2.76
2018-03-30T01:22:48.203Z,2.73
2018-03-30T01:23:48.215Z,2.62
2018-03-30T01:24:48.221Z,2.73
2018-03-30T01:25:48.229Z,2.61
2018-03-30T01:26:48.251Z,2.59
2018-03-30T01:27:48.260Z,2.61
2018-03-30T01:28:48.270Z,2.50
2018-03-30T01:29:48.282Z,2.50
2018-03-30T01:30:48.290Z,2.41
2018-03-30T01:31:48.317Z,2.40
2018-03-30T01:32:48.317Z,2.37
2018-03-30T01:33:48.332Z,2.39
2018-03-30T01:34:48.334Z,2.39
2018-03-30T01:35:48.355Z,2.37
2018-03-30T01:36:48.365Z,2.32
2018-03-30T01:37:48.383Z,2.28
2018-03-30T01:38:48.383Z,2.32
2018-03-30T01:39:48.397Z,2.22
2018-03-30T01:40:48.403Z,2.21
2018-03-30T01:41:48.423Z,2.23
2018-03-30T01:42:48.430Z,2.18
2018-03-30T01:43:48.445Z,2.07
2018-03-30T01:44:48.449Z,2.12
2018-03-30T01:45:48.470Z,2.10
2018-03-30T01:46:48.482Z,2.05
2018-03-30T01:47:48.488Z,2.03
2018-03-30T01:48:48.498Z,2.01
2018-03-30T01:49:48.512Z,1.97
2018-03-30T01:50:48.515Z,1.89
2018-03-30T01:51:48.542Z,1.93
2018-03-30T01:52:48.545Z,1.92
2018-03-30T01:53:48.556Z,1.84
2018-03-30T01:54:48.563Z,1.84
2018-03-30T01:55:48.580Z,1.82
2018-03-30T01:56:48.580Z,1.79
2018-03-30T01:57:48.606Z,1.79
2018-03-30T01:58:48.612Z,1.81
2018-03-30T01:59:48.619Z,1.74
2018-03-30T02:00:48.629Z,1.66
2018-03-30T02:01:48.643Z,1.71
2018-03-30T02:02:48.658Z,1.71
2018-03-30T02:03:48.668Z,1.61
2018-03-30T02:04:48.679Z,1.75
2018-03-30T02:05:48.693Z,1.68
2018-03-30T02:06:48.696Z,1.61
2018-03-30T02:07:48.704Z,1.57
2018-03-30T02:08:48.712Z,1.57
2018-03-30T02:09:48.730Z,1.53
2018-03-30T02:10:48.743Z,1.50
2018-03-30T02:11:48.752Z,1.50
2018-03-30T02:12:48.760Z,1.49
2018-03-30T02:13:48.773Z,1.52
2018-03-30T02:14:48.779Z,1.52
2018-03-30T02:15:48.790Z,1.43
2018-03-30T02:16:48.803Z,1.56
2018-03-30T02:17:48.824Z,1.39
2018-03-30T02:18:48.826Z,1.56
2018-03-30T02:19:48.839Z,1.53
2018-03-30T02:20:48.844Z,1.52
2018-03-30T02:21:48.856Z,1.57
2018-03-30T02:22:48.862Z,1.52
2018-03-30T02:23:48.883Z,1.53
2018-03-30T02:24:48.893Z,1.52
2018-03-30T02:25:48.900Z,1.49
2018-03-30T02:26:48.911Z,1.58
2018-03-30T02:27:48.918Z,1.56
2018-03-30T02:28:48.928Z,1.58
2018-03-30T02:29:48.936Z,1.64
2018-03-30T02:30:48.978Z,1.60
2018-03-30T02:31:48.970Z,1.68
2018-03-30T02:32:48.983Z,1.60
2018-03-30T02:33:48.990Z,1.68
2018-03-30T02:34:48.994Z,1.61
2018-03-30T02:35:49.011Z,1.71
2018-03-30T02:36:49.012Z,1.71
2018-03-30T02:37:49.041Z,1.64
2018-03-30T02:38:49.044Z,1.75
2018-03-30T02:39:49.063Z,1.74
2018-03-30T02:40:49.060Z,1.74
2018-03-30T02:41:49.076Z,1.79
2018-03-30T02:42:49.078Z,1.78
2018-03-30T02:43:49.103Z,1.78
2018-03-30T02:44:49.109Z,1.76
2018-03-30T02:45:49.129Z,1.78
2018-03-30T02:46:49.126Z,1.81
2018-03-30T02:47:49.135Z,1.79
2018-03-30T02:48:49.161Z,1.79
2018-03-30T02:49:49.172Z,1.78
2018-03-30T02:50:49.174Z,1.78
2018-03-30T02:51:49.189Z,1.71
2018-03-30T02:52:49.242Z,1.74
2018-03-30T02:53:49.218Z,1.75
2018-03-30T02:54:49.211Z,1.74
2018-03-30T02:55:49.235Z,1.61
2018-03-30T02:56:49.242Z,1.66
2018-03-30T02:57:49.255Z,1.71
2018-03-30T02:58:49.256Z,1.67
2018-03-30T02:59:49.266Z,1.63
2018-03-30T03:00:49.286Z,1.57
2018-03-30T03:01:49.289Z,1.53
2018-03-30T03:02:49.306Z,1.53
2018-03-30T03:03:49.328Z,1.52
2018-03-30T03:04:49.323Z,1.53
2018-03-30T03:05:49.349Z,1.46
2018-03-30T03:06:49.341Z,1.49
2018-03-30T03:07:49.352Z,1.48
2018-03-30T03:08:49.359Z,1.48
2018-03-30T03:09:49.382Z,1.40
2018-03-30T03:10:49.402Z,1.36
2018-03-30T03:11:49.398Z,1.36
2018-03-30T03:12:49.406Z,1.24
2018-03-30T03:13:49.415Z,1.34
2018-03-30T03:14:49.430Z,1.32
2018-03-30T03:15:49.434Z,1.27
2018-03-30T03:16:49.455Z,1.27
2018-03-30T03:17:49.463Z,1.25
2018-03-30T03:18:49.472Z,1.18
2018-03-30T03:19:49.496Z,1.25
2018-03-30T03:20:49.490Z,1.18
2018-03-30T03:21:49.500Z,1.14
2018-03-30T03:22:49.512Z,1.13
2018-03-30T03:23:49.517Z,1.20
2018-03-30T03:24:49.595Z,1.14
2018-03-30T03:25:49.547Z,1.20
2018-03-30T03:26:49.557Z,1.12
2018-03-30T03:27:49.564Z,1.04
2018-03-30T03:28:49.602Z,1.03
2018-03-30T03:29:49.583Z,0.99
2018-03-30T03:30:49.591Z,1.04
2018-03-30T03:31:49.601Z,1.02
2018-03-30T03:32:49.615Z,0.95
2018-03-30T03:33:49.630Z,0.99
2018-03-30T03:34:49.642Z,1.02
2018-03-30T03:35:49.648Z,0.89
2018-03-30T03:36:49.657Z,0.84
2018-03-30T03:37:49.671Z,0.88
2018-03-30T03:38:49.675Z,0.82
2018-03-30T03:39:49.683Z,0.89
2018-03-30T03:40:49.693Z,0.76
2018-03-30T03:41:49.705Z,0.84
2018-03-30T03:42:49.721Z,0.74
2018-03-30T03:43:49.734Z,0.70
2018-03-30T03:44:49.740Z,0.76
2018-03-30T03:45:49.749Z,0.74
2018-03-30T03:46:49.772Z,0.76
2018-03-30T03:47:49.772Z,0.74
2018-03-30T03:48:49.775Z,0.76
2018-03-30T03:49:49.785Z,0.74
2018-03-30T03:50:49.802Z,0.78
2018-03-30T03:51:49.803Z,0.76
2018-03-30T03:52:49.811Z,0.61
2018-03-30T03:53:49.836Z,0.56
2018-03-30T03:54:49.842Z,0.58
2018-03-30T03:55:49.863Z,0.59
2018-03-30T03:56:49.862Z,0.59
2018-03-30T03:57:49.868Z,0.55
2018-03-30T03:58:49.877Z,0.51
2018-03-30T03:59:49.887Z,0.52
2018-03-30T04:00:49.895Z,0.55
2018-03-30T04:01:49.903Z,0.51
2018-03-30T04:02:49.912Z,0.49
2018-03-30T04:03:49.922Z,0.48
2018-03-30T04:04:49.931Z,0.39
2018-03-30T04:05:49.953Z,0.39
2018-03-30T04:06:49.960Z,0.36
2018-03-30T04:07:49.977Z,0.40
2018-03-30T04:08:49.979Z,0.37
2018-03-30T04:09:49.989Z,0.39
2018-03-30T04:10:49.996Z,0.40
2018-03-30T04:11:50.012Z,0.40
2018-03-30T04:12:50.017Z,0.36
2018-03-30T04:13:50.030Z,0.31
2018-03-30T04:14:50.032Z,0.36
2018-03-30T04:15:50.046Z,0.30
2018-03-30T04:16:50.049Z,0.31
2018-03-30T04:17:50.089Z,0.26
2018-03-30T04:18:50.080Z,0.33
2018-03-30T04:19:50.088Z,0.33
2018-03-30T04:20:50.098Z,0.34
2018-03-30T04:21:50.107Z,0.39
2018-03-30T04:22:50.121Z,0.33
2018-03-30T04:23:50.130Z,0.40
2018-03-30T04:24:50.133Z,0.39
2018-03-30T04:25:50.141Z,0.37
2018-03-30T04:26:50.152Z,0.34
2018-03-30T04:27:50.160Z,0.37
2018-03-30T04:28:50.169Z,0.39
2018-03-30T04:29:50.177Z,0.39
2018-03-30T04:30:50.187Z,0.47
2018-03-30T04:31:50.195Z,0.42
2018-03-30T04:32:50.204Z,0.49
2018-03-30T04:33:50.213Z,0.34
2018-03-30T04:34:50.234Z,0.40
2018-03-30T04:35:50.249Z,0.45
2018-03-30T04:36:50.252Z,0.37
2018-03-30T04:37:50.262Z,0.33
2018-03-30T04:38:50.270Z,0.34
2018-03-30T04:39:50.285Z,0.39
2018-03-30T04:40:50.287Z,0.37
2018-03-30T04:41:50.304Z,0.37
2018-03-30T04:42:50.305Z,0.34
2018-03-30T04:43:50.318Z,0.42
2018-03-30T04:44:50.324Z,0.37
2018-03-30T04:45:50.341Z,0.44
2018-03-30T04:46:50.341Z,0.37
2018-03-30T04:47:50.358Z,0.37
2018-03-30T04:48:50.359Z,0.45
2018-03-30T04:49:50.368Z,0.40
2018-03-30T04:50:50.377Z,0.47
2018-03-30T04:51:50.398Z,0.40
2018-03-30T04:52:50.396Z,0.40
2018-03-30T04:53:50.415Z,0.49
2018-03-30T04:54:50.425Z,0.37
2018-03-30T04:55:50.433Z,0.40
2018-03-30T04:56:50.443Z,0.48
2018-03-30T04:57:50.451Z,0.52
2018-03-30T04:58:50.460Z,0.48
2018-03-30T04:59:50.468Z,0.51
2018-03-30T05:00:50.478Z,0.51
2018-03-30T05:01:50.488Z,0.52
2018-03-30T05:02:50.501Z,0.55
2018-03-30T05:03:50.508Z,0.51
2018-03-30T05:04:50.514Z,0.48
2018-03-30T05:05:50.525Z,0.52
2018-03-30T05:06:50.533Z,0.49
2018-03-30T05:07:50.577Z,0.55
2018-03-30T05:08:50.561Z,0.59
2018-03-30T05:09:50.578Z,0.58
2018-03-30T05:10:50.579Z,0.63
2018-03-30T05:11:50.596Z,0.63
2018-03-30T05:12:50.596Z,0.59
2018-03-30T05:13:50.610Z,0.58
2018-03-30T05:14:50.615Z,0.63
2018-03-30T05:15:50.635Z,0.63
2018-03-30T05:16:50.632Z,0.66
2018-03-30T05:17:50.645Z,0.66
2018-03-30T05:18:50.652Z,0.61
2018-03-30T05:19:50.673Z,0.66
2018-03-30T05:20:50.682Z,0.67
2018-03-30T05:21:50.691Z,0.64
2018-03-30T05:22:50.700Z,0.74
2018-03-30T05:23:50.713Z,0.73
2018-03-30T05:24:50.718Z,0.73
2018-03-30T05:25:50.731Z,0.74
2018-03-30T05:26:50.734Z,0.77
2018-03-30T05:27:50.742Z,0.70
2018-03-30T05:28:50.810Z,0.74
2018-03-30T05:29:50.773Z,0.77
2018-03-30T05:30:50.782Z,0.77
2018-03-30T05:31:50.791Z,0.73
2018-03-30T05:32:50.799Z,0.78
2018-03-30T05:33:50.811Z,0.77
2018-03-30T05:34:50.817Z,0.82
2018-03-30T05:35:50.826Z,0.77
2018-03-30T05:36:50.835Z,0.77
2018-03-30T05:37:50.856Z,0.82
2018-03-30T05:38:50.866Z,0.84
2018-03-30T05:39:50.874Z,0.71
2018-03-30T05:40:50.884Z,0.81
2018-03-30T05:41:50.892Z,0.81
2018-03-30T05:42:50.903Z,0.74
2018-03-30T05:43:50.909Z,0.74
2018-03-30T05:44:50.919Z,0.86
2018-03-30T05:45:50.941Z,0.86
2018-03-30T05:46:50.949Z,0.77
2018-03-30T05:47:50.959Z,0.82
2018-03-30T05:48:50.967Z,0.82
2018-03-30T05:49:50.977Z,0.92
2018-03-30T05:50:50.984Z,0.86
2018-03-30T05:51:50.997Z,0.88
2018-03-30T05:52:51.003Z,0.84
2018-03-30T05:53:51.028Z,0.91
2018-03-30T05:54:51.033Z,0.89
2018-03-30T05:55:51.041Z,0.82
2018-03-30T05:56:51.051Z,0.82
2018-03-30T05:57:51.060Z,0.85
2018-03-30T05:58:51.068Z,0.86
2018-03-30T05:59:51.081Z,0.89
2018-03-30T06:00:51.098Z,0.82
2018-03-30T06:01:51.108Z,0.92
2018-03-30T06:02:51.120Z,0.92
2018-03-30T06:03:51.126Z,0.91
2018-03-30T06:04:51.134Z,0.88
2018-03-30T06:05:51.143Z,0.96
2018-03-30T06:06:51.153Z,0.96
2018-03-30T06:07:51.173Z,1.02
2018-03-30T06:08:51.183Z,0.96
2018-03-30T06:09:51.191Z,1.04
2018-03-30T06:10:51.201Z,1.00
2018-03-30T06:11:51.209Z,1.07
2018-03-30T06:12:51.219Z,1.04
2018-03-30T06:13:51.228Z,1.03
2018-03-30T06:14:51.247Z,1.04
2018-03-30T06:15:51.261Z,1.07
2018-03-30T06:16:51.271Z,1.16
2018-03-30T06:17:51.280Z,1.09
2018-03-30T06:18:51.284Z,1.07
2018-03-30T06:19:51.305Z,1.02
2018-03-30T06:20:51.314Z,1.10
2018-03-30T06:21:51.322Z,1.18
2018-03-30T06:22:51.332Z,1.24
2018-03-30T06:23:51.340Z,1.25
2018-03-30T06:24:51.356Z,1.22
2018-03-30T06:25:51.379Z,1.30
2018-03-30T06:26:51.391Z,1.32
2018-03-30T06:27:51.396Z,1.36
2018-03-30T06:28:51.397Z,1.34
2018-03-30T06:29:51.419Z,1.46
2018-03-30T06:30:51.428Z,1.36
2018-03-30T06:31:51.437Z,1.36
2018-03-30T06:32:51.446Z,1.43
2018-03-30T06:33:51.462Z,1.52
2018-03-30T06:34:51.477Z,1.53
2018-03-30T06:35:51.493Z,1.68
2018-03-30T06:36:51.493Z,1.60
2018-03-30T06:37:51.504Z,1.71
2018-03-30T06:38:51.525Z,1.68
2018-03-30T06:39:51.536Z,1.70
2018-03-30T06:40:51.543Z,1.75
2018-03-30T06:41:51.569Z,1.86
2018-03-30T06:42:51.572Z,1.97
2018-03-30T06:43:51.581Z,1.82
2018-03-30T06:44:51.589Z,1.93
2018-03-30T06:45:51.631Z,2.07
2018-03-30T06:46:51.620Z,1.95
2018-03-30T06:47:51.629Z,2.00
2018-03-30T06:48:51.654Z,2.08
2018-03-30T06:49:51.727Z,2.16
2018-03-30T06:50:51.669Z,2.22
2018-03-30T06:51:51.690Z,2.18
2018-03-30T06:52:51.699Z,2.36
2018-03-30T06:53:51.714Z,2.36
2018-03-30T06:54:51.717Z,2.36
2018-03-30T06:55:51.747Z,2.51
2018-03-30T06:56:51.746Z,2.54
2018-03-30T06:57:51.761Z,2.59
2018-03-30T06:58:51.777Z,2.61
2018-03-30T06:59:51.790Z,2.75
2018-03-30T07:00:51.795Z,2.76
2018-03-30T07:01:51.821Z,2.80
2018-03-30T07:02:51.830Z,2.77
2018-03-30T07:03:51.844Z,2.93
2018-03-30T07:04:51.859Z,2.88
2018-03-30T07:05:51.870Z,2.93
2018-03-30T07:06:51.874Z,3.08
2018-03-30T07:07:51.900Z,3.11
2018-03-30T07:08:51.903Z,3.21
2018-03-30T07:09:51.924Z,3.34
2018-03-30T07:10:51.934Z,3.41
2018-03-30T07:11:51.943Z,3.34
2018-03-30T07:12:51.963Z,3.46
2018-03-30T07:13:51.973Z,3.53
2018-03-30T07:14:51.981Z,3.61
2018-03-30T07:15:52.010Z,3.63
2018-03-30T07:16:52.013Z,3.76
2018-03-30T07:17:52.035Z,3.76
2018-03-30T07:18:52.042Z,3.81
2018-03-30T07:19:52.051Z,3.92
2018-03-30T07:20:52.072Z,3.92
2018-03-30T07:21:52.102Z,3.96
2018-03-30T07:22:52.103Z,3.95
2018-03-30T07:23:52.113Z,4.03
2018-03-30T07:24:52.122Z,4.03
2018-03-30T07:25:52.142Z,4.21
2018-03-30T07:26:52.160Z,4.31
2018-03-30T07:27:52.173Z,4.39
2018-03-30T07:28:52.180Z,4.32
2018-03-30T07:29:52.202Z,4.40
2018-03-30T07:30:52.213Z,4.45
2018-03-30T07:31:52.233Z,4.50
2018-03-30T07:32:52.241Z,4.60
2018-03-30T07:33:52.271Z,4.78
2018-03-30T07:34:52.273Z,4.90
2018-03-30T07:35:52.300Z,5.02
2018-03-30T07:36:52.302Z,4.98
2018-03-30T07:37:52.328Z,5.02
2018-03-30T07:38:52.333Z,5.02
2018-03-30T07:39:52.356Z,5.02
2018-03-30T07:40:52.362Z,5.05
2018-03-30T07:41:52.390Z,5.10
2018-03-30T07:42:52.393Z,5.16
2018-03-30T07:43:52.415Z,5.16
2018-03-30T07:44:52.422Z,5.31
2018-03-30T07:45:52.444Z,5.25
2018-03-30T07:46:52.453Z,5.33
2018-03-30T07:47:52.478Z,5.34
2018-03-30T07:48:52.483Z,5.36
2018-03-30T07:49:52.510Z,5.29
2018-03-30T07:50:52.517Z,5.31
2018-03-30T07:51:52.536Z,5.37
2018-03-30T07:52:52.546Z,5.29
2018-03-30T07:53:52.573Z,5.34
2018-03-30T07:54:52.589Z,5.43
2018-03-30T07:55:52.602Z,5.54
2018-03-30T07:56:52.618Z,5.44
2018-03-30T07:57:52.626Z,5.51
2018-03-30T07:58:52.647Z,5.58
2018-03-30T07:59:52.657Z,5.51
2018-03-30T08:00:52.678Z,5.49
2018-03-30T08:01:52.699Z,5.55
2018-03-30T08:02:52.708Z,5.46
2018-03-30T08:03:52.729Z,5.59
2018-03-30T08:04:52.739Z,5.61
2018-03-30T08:05:52.761Z,5.62
2018-03-30T08:06:52.770Z,5.77
2018-03-30T08:07:52.789Z,5.72
2018-03-30T08:08:52.811Z,5.87
2018-03-30T08:09:52.820Z,5.94
2018-03-30T08:10:52.842Z,5.95
2018-03-30T08:11:52.851Z,5.94
2018-03-30T08:12:52.872Z,6.02
2018-03-30T08:13:52.900Z,5.98
2018-03-30T08:14:52.903Z,6.06
2018-03-30T08:15:52.974Z,6.06
2018-03-30T08:16:52.945Z,6.17
2018-03-30T08:17:52.954Z,6.19
2018-03-30T08:18:52.991Z,6.16
2018-03-30T08:19:52.991Z,6.20
2018-03-30T08:20:53.007Z,6.22
2018-03-30T08:21:53.029Z,6.19
2018-03-30T08:22:53.037Z,6.19
2018-03-30T08:23:53.057Z,6.26
2018-03-30T08:24:53.078Z,6.22
2018-03-30T08:25:53.087Z,6.28
2018-03-30T08:26:53.109Z,6.31
2018-03-30T08:27:53.119Z,6.26
2018-03-30T08:28:53.139Z,6.22
2018-03-30T08:29:53.165Z,6.28
2018-03-30T08:30:53.171Z,6.22
2018-03-30T08:31:53.192Z,6.29
2018-03-30T08:32:53.213Z,6.22
2018-03-30T08:33:53.221Z,6.26
2018-03-30T08:34:53.242Z,6.25
2018-03-30T08:35:53.265Z,6.32
2018-03-30T08:36:53.273Z,6.32
2018-03-30T08:37:53.295Z,6.29
2018-03-30T08:38:53.303Z,6.31
2018-03-30T08:39:53.328Z,6.41
2018-03-30T08:40:53.345Z,6.41
2018-03-30T08:41:53.413Z,6.32
2018-03-30T08:42:53.378Z,6.26
2018-03-30T08:43:53.386Z,6.28
2018-03-30T08:44:53.406Z,6.36
2018-03-30T08:45:53.429Z,6.47
2018-03-30T08:46:53.439Z,6.39
2018-03-30T08:47:53.462Z,6.43
2018-03-30T08:48:53.473Z,6.44
2018-03-30T08:49:53.495Z,6.49
2018-03-30T08:50:53.511Z,6.53
2018-03-30T08:51:53.520Z,6.54
2018-03-30T08:52:53.540Z,6.44
2018-03-30T08:53:53.556Z,6.47
2018-03-30T08:54:53.570Z,6.46
2018-03-30T08:55:53.592Z,6.43
2018-03-30T08:56:53.601Z,6.44
2018-03-30T08:57:53.622Z,6.50
2018-03-30T08:58:53.645Z,6.52
2018-03-30T08:59:53.661Z,6.49
2018-03-30T09:00:53.674Z,6.53
2018-03-30T09:01:53.682Z,6.62
2018-03-30T09:02:53.707Z,6.64
2018-03-30T09:03:53.732Z,6.77
2018-03-30T09:04:53.734Z,6.71
2018-03-30T09:05:53.762Z,6.78
2018-03-30T09:06:53.777Z,6.85
2018-03-30T09:07:53.786Z,6.87
2018-03-30T09:08:53.809Z,6.85
2018-03-30T09:09:53.835Z,6.96
2018-03-30T09:10:53.838Z,6.96
2018-03-30T09:11:53.860Z,7.05
2018-03-30T09:12:53.881Z,7.11
2018-03-30T09:13:53.895Z,7.11
2018-03-30T09:14:53.910Z,7.21
2018-03-30T09:15:53.943Z,7.14
2018-03-30T09:16:53.941Z,7.26
2018-03-30T09:17:53.967Z,7.25
2018-03-30T09:18:53.986Z,7.26
2018-03-30T09:19:54.000Z,7.32
2018-03-30T09:20:54.014Z,7.37
2018-03-30T09:21:54.043Z,7.33
2018-03-30T09:22:54.045Z,7.39
2018-03-30T09:23:54.071Z,7.50
2018-03-30T09:24:54.089Z,7.48
2018-03-30T09:25:54.108Z,7.48
2018-03-30T09:26:54.118Z,7.61
2018-03-30T09:27:54.139Z,7.59
2018-03-30T09:28:54.161Z,7.62
2018-03-30T09:29:54.173Z,7.58
2018-03-30T09:30:54.189Z,7.66
2018-03-30T09:31:54.211Z,7.66
2018-03-30T09:32:54.233Z,7.80
2018-03-30T09:33:54.243Z,7.70
2018-03-30T09:34:54.264Z,7.66
2018-03-30T09:35:54.285Z,7.67
2018-03-30T09:36:54.306Z,7.75
2018-03-30T09:37:54.315Z,7.85
2018-03-30T09:38:54.337Z,7.85
2018-03-30T09:39:54.357Z,7.84
2018-03-30T09:40:54.379Z,7.87
2018-03-30T09:41:54.389Z,7.84
2018-03-30T09:42:54.413Z,7.85
2018-03-30T09:43:54.433Z,7.84
2018-03-30T09:44:54.456Z,7.91
2018-03-30T09:45:54.460Z,7.95
2018-03-30T09:46:54.482Z,7.96
2018-03-30T09:47:54.506Z,7.98
2018-03-30T09:48:54.525Z,7.91
2018-03-30T09:49:54.537Z,7.99
2018-03-30T09:50:54.556Z,8.09
2018-03-30T09:51:54.577Z,8.16
2018-03-30T09:52:54.651Z,8.18
2018-03-30T09:53:54.607Z,8.24
2018-03-30T09:54:54.628Z,8.21
2018-03-30T09:55:54.649Z,8.28
2018-03-30T09:56:54.675Z,8.44
2018-03-30T09:57:54.681Z,8.44
2018-03-30T09:58:54.702Z,8.39
2018-03-30T09:59:54.724Z,8.50
2018-03-30T10:00:54.745Z,8.52
2018-03-30T10:01:54.766Z,8.50
2018-03-30T10:02:54.776Z,8.46
2018-03-30T10:03:54.795Z,8.53
2018-03-30T10:04:54.817Z,8.54
2018-03-30T10:05:54.840Z,8.60
2018-03-30T10:06:54.860Z,8.71
2018-03-30T10:07:54.871Z,8.66
2018-03-30T10:08:54.892Z,8.69
2018-03-30T10:09:54.912Z,8.75
2018-03-30T10:10:54.934Z,8.77
2018-03-30T10:11:54.955Z,8.87
2018-03-30T10:12:54.964Z,8.95
2018-03-30T10:13:54.986Z,9.08
2018-03-30T10:14:55.006Z,9.15
2018-03-30T10:15:55.030Z,9.15
2018-03-30T10:16:55.050Z,9.21
2018-03-30T10:17:55.070Z,9.33
2018-03-30T10:18:55.091Z,9.30
2018-03-30T10:19:55.103Z,9.42
2018-03-30T10:20:55.123Z,9.51
2018-03-30T10:21:55.149Z,9.47
2018-03-30T10:22:55.165Z,9.49
2018-03-30T10:23:55.186Z,9.59
2018-03-30T10:24:55.211Z,9.62
2018-03-30T10:25:55.218Z,9.56
2018-03-30T10:26:55.238Z,9.67
2018-03-30T10:27:55.259Z,9.69
2018-03-30T10:28:55.280Z,9.73
2018-03-30T10:29:55.302Z,9.72
2018-03-30T10:30:55.323Z,9.69
2018-03-30T10:31:55.345Z,9.74
2018-03-30T10:32:55.353Z,9.76
2018-03-30T10:33:55.378Z,9.76
2018-03-30T10:34:55.398Z,9.74
2018-03-30T10:35:55.419Z,9.69
2018-03-30T10:36:55.440Z,9.73
2018-03-30T10:37:55.465Z,9.72
2018-03-30T10:38:55.472Z,9.66
2018-03-30T10:39:55.491Z,9.56
2018-03-30T10:40:55.512Z,9.55
2018-03-30T10:41:55.533Z,9.49
2018-03-30T10:42:55.561Z,9.44
2018-03-30T10:43:55.576Z,9.33
2018-03-30T10:44:55.586Z,9.36
2018-03-30T10:45:55.607Z,9.36
2018-03-30T10:46:55.634Z,9.44
2018-03-30T10:47:55.649Z,9.42
2018-03-30T10:48:55.660Z,9.44
2018-03-30T10:49:55.680Z,9.34
2018-03-30T10:50:55.700Z,9.37
2018-03-30T10:51:55.723Z,9.37
2018-03-30T10:52:55.744Z,9.34
2018-03-30T10:53:55.754Z,9.29
2018-03-30T10:54:55.775Z,9.30
2018-03-30T10:55:55.797Z,9.16
2018-03-30T10:56:55.818Z,9.15
2018-03-30T10:57:55.838Z,9.18
2018-03-30T10:58:55.859Z,9.16
2018-03-30T10:59:55.869Z,9.19
2018-03-30T11:00:55.890Z,9.30
2018-03-30T11:01:55.911Z,9.27
2018-03-30T11:02:55.933Z,9.27
2018-03-30T11:03:55.954Z,9.33
2018-03-30T11:04:55.963Z,9.37
2018-03-30T11:05:55.985Z,9.34
2018-03-30T11:06:56.006Z,9.31
2018-03-30T11:07:56.028Z,9.33
2018-03-30T11:08:56.049Z,9.44
2018-03-30T11:09:56.057Z,9.44
2018-03-30T11:10:56.078Z,9.33
2018-03-30T11:11:56.100Z,9.33
2018-03-30T11:12:56.121Z,9.30
2018-03-30T11:13:56.135Z,9.33
2018-03-30T11:14:56.154Z,9.30
2018-03-30T11:15:56.174Z,9.27
2018-03-30T11:16:56.195Z,9.16
2018-03-30T11:17:56.253Z,9.26
2018-03-30T11:18:56.224Z,9.16
2018-03-30T11:19:56.246Z,9.18
2018-03-30T11:20:56.267Z,9.11
2018-03-30T11:21:56.278Z,9.05
2018-03-30T11:22:56.299Z,9.21
2018-03-30T11:23:56.320Z,9.15
2018-03-30T11:24:56.341Z,9.16
2018-03-30T11:25:56.349Z,9.11
2018-03-30T11:26:56.371Z,9.13
2018-03-30T11:27:56.392Z,9.18
2018-03-30T11:28:56.413Z,9.12
2018-03-30T11:29:56.424Z,9.05
2018-03-30T11:30:56.444Z,9.05
2018-03-30T11:31:56.465Z,9.02
2018-03-30T11:32:56.474Z,8.93
2018-03-30T11:33:56.495Z,9.00
2018-03-30T11:34:56.518Z,8.99
2018-03-30T11:35:56.538Z,8.97
2018-03-30T11:36:56.547Z,9.02
2018-03-30T11:37:56.569Z,9.03
2018-03-30T11:38:56.590Z,9.00
2018-03-30T11:39:56.604Z,9.05
2018-03-30T11:40:56.620Z,9.11
2018-03-30T11:41:56.642Z,9.12
2018-03-30T11:42:56.652Z,9.21
2018-03-30T11:43:56.672Z,9.16
2018-03-30T11:44:56.694Z,9.12
2018-03-30T11:45:56.703Z,9.13
2018-03-30T11:46:56.723Z,9.18
2018-03-30T11:47:56.745Z,9.27
2018-03-30T11:48:56.756Z,9.22
2018-03-30T11:49:56.781Z,9.30
2018-03-30T11:50:56.797Z,9.30
2018-03-30T11:51:56.820Z,9.30
2018-03-30T11:52:56.828Z,9.31
2018-03-30T11:53:56.848Z,9.31
2018-03-30T11:54:56.869Z,9.33
2018-03-30T11:55:56.947Z,9.47
2018-03-30T11:56:56.903Z,9.49
2018-03-30T11:57:56.926Z,9.47
2018-03-30T11:58:56.932Z,9.47
2018-03-30T11:59:56.951Z,9.51
2018-03-30T12:00:56.972Z,9.48
2018-03-30T12:01:56.996Z,9.51
2018-03-30T12:02:57.004Z,9.54
2018-03-30T12:03:57.025Z,9.40
2018-03-30T12:04:57.047Z,9.44
2018-03-30T12:05:57.056Z,9.52
2018-03-30T12:06:57.076Z,9.45
2018-03-30T12:07:57.122Z,9.36
2018-03-30T12:08:57.107Z,9.36
2018-03-30T12:09:57.128Z,9.37
2018-03-30T12:10:57.150Z,9.34
2018-03-30T12:11:57.171Z,9.29
2018-03-30T12:12:57.180Z,9.42
2018-03-30T12:13:57.204Z,9.47
2018-03-30T12:14:57.222Z,9.47
2018-03-30T12:15:57.232Z,9.47
2018-03-30T12:16:57.254Z,9.45
2018-03-30T12:17:57.275Z,9.44
2018-03-30T12:18:57.283Z,9.48
2018-03-30T12:19:57.304Z,9.54
2018-03-30T12:20:57.330Z,9.59
2018-03-30T12:21:57.335Z,9.64
2018-03-30T12:22:57.358Z,9.70
2018-03-30T12:23:57.378Z,9.64
2018-03-30T12:24:57.390Z,9.73
2018-03-30T12:25:57.407Z,9.74
2018-03-30T12:26:57.429Z,9.73
2018-03-30T12:27:57.450Z,9.72
2018-03-30T12:28:57.459Z,9.81
2018-03-30T12:29:57.481Z,9.84
2018-03-30T12:30:57.506Z,9.88
2018-03-30T12:31:57.527Z,9.90
2018-03-30T12:32:57.538Z,9.94
2018-03-30T12:33:57.553Z,9.95
2018-03-30T12:34:57.575Z,9.97
2018-03-30T12:35:57.585Z,10.02
2018-03-30T12:36:57.606Z,10.00
2018-03-30T12:37:57.628Z,9.95
2018-03-30T12:38:57.638Z,10.10
2018-03-30T12:39:57.657Z,10.09
2018-03-30T12:40:57.686Z,10.10
2018-03-30T12:41:57.700Z,10.18
2018-03-30T12:42:57.709Z,10.10
2018-03-30T12:43:57.731Z,10.15
2018-03-30T12:44:57.752Z,10.15
2018-03-30T12:45:57.784Z,10.12
2018-03-30T12:46:57.781Z,10.15
2018-03-30T12:47:57.803Z,10.12
2018-03-30T12:48:57.825Z,10.17
2018-03-30T12:49:57.835Z,10.15
2018-03-30T12:50:57.856Z,10.10
2018-03-30T12:51:57.877Z,10.18
2018-03-30T12:52:57.936Z,10.15
2018-03-30T12:53:57.907Z,10.15
2018-03-30T12:54:57.928Z,10.25
2018-03-30T12:55:57.962Z,10.24
2018-03-30T12:56:57.970Z,10.21
2018-03-30T12:57:57.979Z,10.28
2018-03-30T12:58:58.002Z,10.23
2018-03-30T12:59:58.023Z,10.21
2018-03-30T13:00:58.033Z,10.27
2018-03-30T13:01:58.053Z,10.25
2018-03-30T13:02:58.074Z,10.25
2018-03-30T13:03:58.095Z,10.25
2018-03-30T13:04:58.116Z,10.31
2018-03-30T13:05:58.126Z,10.25
2018-03-30T13:06:58.150Z,10.31
2018-03-30T13:07:58.169Z,10.36
2018-03-30T13:08:58.177Z,10.36
2018-03-30T13:09:58.212Z,10.27
2018-03-30T13:10:58.220Z,10.38
2018-03-30T13:11:58.242Z,10.34
2018-03-30T13:12:58.251Z,10.36
2018-03-30T13:13:58.273Z,10.30
2018-03-30T13:14:58.294Z,10.36
2018-03-30T13:15:58.303Z,10.39
2018-03-30T13:16:58.327Z,10.33
2018-03-30T13:17:58.345Z,10.34